Enchantment of the Seas — C6FZ7 — position and weather

sailwx.info

Track history (hours):
 
Tides and Currents Weather Stations Pressure Air Temp Water Temp Dewpoint Dewpoint Depression Visibility Wind Speed Wind Dir Waves Ship Positions

Enchantment of the Seas (Bahamas)

Last reported at 2014-Jul-28 04:28 UTC. Time now 2014-Jul-30 23:14 UTC.
Position N 27°03' W 079°25'.

Type: Passenger vessel. MMSI: 311733000.

Date/timePositionNaut miles runAvg speedWind from/ knotsBaromVisibWave heightAir tempDewpointWater temp
2014-Jul-28 04:28N 27°03' W 079°25'1516.7
2014-Jul-28 03:33N 26°50' W 079°15'1515.6
2014-Jul-28 02:33N 26°37' W 079°06'1414.4
2014-Jul-28 01:33N 26°28' W 078°54'1414.4
2014-Jul-28 00:33N 26°19' W 078°41'1714.4
2014-Jul-27 23:23N 26°09' W 078°26'  
2014-Jul-25 02:15N 27°24' W 079°46'2112.2
2014-Jul-25 00:30N 27°05' W 079°34'1611.2
2014-Jul-24 23:06N 26°51' W 079°26'  
2014-Jul-19 07:20N 26°26' W 078°51'  
Track history (hours):
 
Tides and Currents Weather Stations Pressure Air Temp Water Temp Dewpoint Dewpoint Depression Visibility Wind Speed Wind Dir Waves Ship Positions

Enchantment of the Seas (Bahamas)

Last reported at 2014-Jul-28 04:28 UTC. Time now 2014-Jul-30 23:14 UTC.
Position N 27°03' W 079°25'.

Type: Passenger vessel. MMSI: 311733000.

Date/timePositionNaut miles runAvg speedWind from/ knotsBaromVisibWave heightAir tempDewpointWater temp
2014-Jul-28 04:28N 27°03' W 079°25'1516.7
2014-Jul-28 03:33N 26°50' W 079°15'1515.6
2014-Jul-28 02:33N 26°37' W 079°06'1414.4
2014-Jul-28 01:33N 26°28' W 078°54'1414.4
2014-Jul-28 00:33N 26°19' W 078°41'1714.4
2014-Jul-27 23:23N 26°09' W 078°26'  
2014-Jul-25 02:15N 27°24' W 079°46'2112.2
2014-Jul-25 00:30N 27°05' W 079°34'1611.2
2014-Jul-24 23:06N 26°51' W 079°26'  
2014-Jul-19 07:20N 26°26' W 078°51'  

Dump ship's entire track history